Terminal Aerodrome Forecast
Issued by NWS

Home | Current Version | Previous Version | Graphics & Text | Print | Product List | Glossary On
Versions: 1 2 3 4 5 6 7 8 9 10 11 12 13 14
000
FTUS43 KMPX 301700
TAFRWF
TAF
KRWF 301720Z 3018/3118 30007KT P6SM BKN006 OVC012
     FM301900 30006KT P6SM BKN012 BKN020
     FM302100 31006KT P6SM SCT015 BKN025
     FM310000 VRB02KT 6SM BR SCT025
     FM310800 16010KT 3SM BR SCT002 BKN200
     FM311500 16014G22KT P6SM VCSH SCT050 BKN110=

USA.gov is the U.S. government's official web portal to all federal, state and local government web resources and services.